Погода Ибиапинана неделю

Сеара, Бразилия

25 июня-01 июля
  • 25июня
    Сегодня
    +20°
    +27°
    Ясно и безоблачно
    ВремяПогодаТемператураВлажностьДавлениеВетер, м/сВероятность осадков
    00:00Ясно и безоблачно+22°C82 %700 мм1.9 м/с5 %
    03:00Ясно и безоблачно+20°C89 %698 мм1.9 м/с5 %
    06:00Ясно и безоблачно+20°C92 %699 мм1.7 м/с3 %
    09:00Практически безоблачно+24°C78 %701 мм5.7 м/с6 %
    12:00Ясно и безоблачно+25°C62 %700 мм4.4 м/с3 %
    15:00Ясно и безоблачно+27°C54 %699 мм3.4 м/с4 %
    18:00Ясно и безоблачно+25°C69 %699 мм1.6 м/с5 %
    21:00Ясно и безоблачно+23°C74 %700 мм2.0 м/с5 %
  • 26июня
    Среда
    +20°
    +27°
    Ясно и безоблачно
    ВремяПогодаТемператураВлажностьДавлениеВетер, м/сВероятность осадков
    00:00Ясно и безоблачно+23°C78 %700 мм1.7 м/с5 %
    03:00Ясно и безоблачно+21°C84 %699 мм2.0 м/с4 %
    06:00Практически безоблачно+21°C91 %700 мм2.6 м/с17 %
    09:00Практически безоблачно+24°C76 %701 мм5.0 м/с5 %
    12:00Практически безоблачно+25°C64 %700 мм5.6 м/с8 %
    15:00Ясно и безоблачно+27°C58 %699 мм4.5 м/с10 %
    18:00Ясно и безоблачно+25°C70 %699 мм1.7 м/с7 %
    21:00Ясно и безоблачно+24°C70 %700 мм1.5 м/с11 %
  • 27июня
    Четверг
    +19°
    +28°
    Практически безоблачно
    ВремяПогодаТемператураВлажностьДавлениеВетер, м/сВероятность осадков
    00:00Ясно и безоблачно+24°C71 %700 мм0.6 м/с4 %
    03:00Ясно и безоблачно+21°C82 %698 мм0.4 м/с3 %
    06:00Ясно и безоблачно+21°C86 %699 мм1.6 м/с11 %
    09:00Практически безоблачно+23°C80 %701 мм3.5 м/с19 %
    12:00Практически безоблачно+26°C63 %700 мм4.3 м/с8 %
    15:00Практически безоблачно+27°C59 %699 мм3.8 м/с14 %
    18:00Ясно и безоблачно+25°C74 %699 мм1.6 м/с12 %
    21:00Ясно и безоблачно+24°C74 %700 мм2.1 м/с4 %
  • 28июня
    Пятница
    +20°
    +28°
    Ясно и безоблачно
    ВремяПогодаТемператураВлажностьДавлениеВетер, м/сВероятность осадков
    00:00Ясно и безоблачно+22°C79 %699 мм1.7 м/с3 %
    03:00Ясно и безоблачно+21°C84 %698 мм0.4 м/с5 %
    06:00Ясно и безоблачно+20°C91 %698 мм1.6 м/с8 %
    09:00Облачно с прояснениями+24°C79 %700 мм4.0 м/с9 %
    12:00Небольшая облачность+26°C62 %699 мм4.6 м/с5 %
    15:00Ясно и безоблачно+28°C55 %698 мм3.8 м/с6 %
    18:00Ясно и безоблачно+25°C71 %699 мм1.3 м/с8 %
    21:00Ясно и безоблачно+24°C70 %700 мм1.8 м/с13 %
Мы используем cookies
Соглашаюсь